sensor_id;sensor_type;location;lat;lon;timestamp;pressure;altitude;pressure_sealevel;temperature;humidity
11413;BME280;5762;43.256;26.960;2023-02-25T00:01:07;99086.23;;;5.16;100.00
11413;BME280;5762;43.256;26.960;2023-02-25T00:03:36;99092.68;;;5.15;100.00
11413;BME280;5762;43.256;26.960;2023-02-25T00:06:06;99083.58;;;5.11;100.00
11413;BME280;5762;43.256;26.960;2023-02-25T00:08:35;99082.52;;;5.10;100.00
11413;BME280;5762;43.256;26.960;2023-02-25T00:11:05;99077.41;;;5.11;100.00
11413;BME280;5762;43.256;26.960;2023-02-25T00:13:34;99080.34;;;5.14;100.00
11413;BME280;5762;43.256;26.960;2023-02-25T00:16:03;99081.41;;;5.16;100.00
11413;BME280;5762;43.256;26.960;2023-02-25T00:18:32;99079.19;;;5.23;100.00
11413;BME280;5762;43.256;26.960;2023-02-25T00:21:07;99075.94;;;5.28;100.00
11413;BME280;5762;43.256;26.960;2023-02-25T00:23:31;99078.05;;;5.34;100.00
11413;BME280;5762;43.256;26.960;2023-02-25T00:26:01;99075.85;;;5.41;100.00
11413;BME280;5762;43.256;26.960;2023-02-25T00:28:29;99074.48;;;5.44;100.00
11413;BME280;5762;43.256;26.960;2023-02-25T00:30:58;99063.72;;;5.49;100.00
11413;BME280;5762;43.256;26.960;2023-02-25T00:33:26;99063.61;;;5.59;100.00
11413;BME280;5762;43.256;26.960;2023-02-25T00:35:55;99059.20;;;5.73;100.00
11413;BME280;5762;43.256;26.960;2023-02-25T00:38:24;99049.73;;;5.81;100.00
11413;BME280;5762;43.256;26.960;2023-02-25T00:40:54;99045.41;;;5.85;100.00
11413;BME280;5762;43.256;26.960;2023-02-25T00:43:22;99041.68;;;5.81;100.00
11413;BME280;5762;43.256;26.960;2023-02-25T00:45:51;99037.98;;;5.74;100.00
11413;BME280;5762;43.256;26.960;2023-02-25T00:48:20;99029.10;;;5.76;100.00
11413;BME280;5762;43.256;26.960;2023-02-25T00:50:49;99029.10;;;5.76;100.00
11413;BME280;5762;43.256;26.960;2023-02-25T00:53:18;99023.42;;;5.80;100.00
11413;BME280;5762;43.256;26.960;2023-02-25T00:55:47;99012.20;;;5.76;100.00
11413;BME280;5762;43.256;26.960;2023-02-25T00:58:16;99007.63;;;5.76;100.00
11413;BME280;5762;43.256;26.960;2023-02-25T01:00:44;99002.80;;;5.76;100.00
11413;BME280;5762;43.256;26.960;2023-02-25T01:03:13;99002.28;;;5.73;100.00
11413;BME280;5762;43.256;26.960;2023-02-25T01:05:42;98998.05;;;5.67;100.00
11413;BME280;5762;43.256;26.960;2023-02-25T01:08:11;98988.36;;;5.69;100.00
11413;BME280;5762;43.256;26.960;2023-02-25T01:10:41;98986.97;;;5.74;100.00
11413;BME280;5762;43.256;26.960;2023-02-25T01:13:10;98982.17;;;5.71;100.00
11413;BME280;5762;43.256;26.960;2023-02-25T01:15:38;98985.42;;;5.68;100.00
11413;BME280;5762;43.256;26.960;2023-02-25T01:18:07;98985.45;;;5.65;100.00
11413;BME280;5762;43.256;26.960;2023-02-25T01:20:38;98982.77;;;5.65;100.00
11413;BME280;5762;43.256;26.960;2023-02-25T01:23:07;98975.25;;;5.65;100.00
11413;BME280;5762;43.256;26.960;2023-02-25T01:25:38;98976.05;;;5.65;100.00
11413;BME280;5762;43.256;26.960;2023-02-25T01:28:07;98973.95;;;5.60;100.00
11413;BME280;5762;43.256;26.960;2023-02-25T01:30:36;98969.98;;;5.55;100.00
11413;BME280;5762;43.256;26.960;2023-02-25T01:33:04;98969.52;;;5.50;100.00
11413;BME280;5762;43.256;26.960;2023-02-25T01:35:34;98973.02;;;5.48;100.00
11413;BME280;5762;43.256;26.960;2023-02-25T01:38:02;98968.48;;;5.46;100.00
11413;BME280;5762;43.256;26.960;2023-02-25T01:40:31;98968.52;;;5.41;100.00
11413;BME280;5762;43.256;26.960;2023-02-25T01:43:00;98969.05;;;5.43;100.00
11413;BME280;5762;43.256;26.960;2023-02-25T01:45:29;98960.76;;;5.39;100.00
11413;BME280;5762;43.256;26.960;2023-02-25T01:48:00;98966.34;;;5.46;100.00
11413;BME280;5762;43.256;26.960;2023-02-25T01:50:31;98962.27;;;5.51;100.00
11413;BME280;5762;43.256;26.960;2023-02-25T01:52:58;98957.72;;;5.49;100.00
11413;BME280;5762;43.256;26.960;2023-02-25T01:55:27;98960.12;;;5.50;100.00
11413;BME280;5762;43.256;26.960;2023-02-25T01:57:57;98960.41;;;5.49;100.00
11413;BME280;5762;43.256;26.960;2023-02-25T02:00:26;98951.02;;;5.49;100.00
11413;BME280;5762;43.256;26.960;2023-02-25T02:02:55;98949.98;;;5.45;100.00
11413;BME280;5762;43.256;26.960;2023-02-25T02:05:26;98950.31;;;5.38;100.00
11413;BME280;5762;43.256;26.960;2023-02-25T02:07:54;98950.78;;;5.45;100.00
11413;BME280;5762;43.256;26.960;2023-02-25T02:10:23;98952.08;;;5.50;100.00
11413;BME280;5762;43.256;26.960;2023-02-25T02:12:52;98948.74;;;5.58;100.00
11413;BME280;5762;43.256;26.960;2023-02-25T02:15:21;98947.33;;;5.66;100.00
11413;BME280;5762;43.256;26.960;2023-02-25T02:18:00;98943.53;;;5.69;100.00
11413;BME280;5762;43.256;26.960;2023-02-25T02:20:32;98946.70;;;5.74;100.00
11413;BME280;5762;43.256;26.960;2023-02-25T02:23:18;98940.52;;;5.76;100.00
11413;BME280;5762;43.256;26.960;2023-02-25T02:25:52;98939.94;;;5.79;100.00
11413;BME280;5762;43.256;26.960;2023-02-25T02:33:52;98936.30;;;5.67;100.00
11413;BME280;5762;43.256;26.960;2023-02-25T02:36:30;98927.99;;;5.66;100.00
11413;BME280;5762;43.256;26.960;2023-02-25T02:39:01;98934.97;;;5.91;100.00
11413;BME280;5762;43.256;26.960;2023-02-25T02:41:33;98933.48;;;6.04;100.00
11413;BME280;5762;43.256;26.960;2023-02-25T02:46:34;98929.52;;;5.99;100.00
11413;BME280;5762;43.256;26.960;2023-02-25T02:49:15;98926.37;;;5.92;100.00
11413;BME280;5762;43.256;26.960;2023-02-25T02:51:49;98923.72;;;5.89;100.00
11413;BME280;5762;43.256;26.960;2023-02-25T02:54:14;98923.58;;;5.78;100.00
11413;BME280;5762;43.256;26.960;2023-02-25T02:56:44;98926.58;;;5.74;100.00
11413;BME280;5762;43.256;26.960;2023-02-25T02:59:22;98922.80;;;5.75;100.00
11413;BME280;5762;43.256;26.960;2023-02-25T03:01:53;98922.03;;;5.72;100.00
11413;BME280;5762;43.256;26.960;2023-02-25T03:04:22;98925.80;;;5.71;100.00
11413;BME280;5762;43.256;26.960;2023-02-25T03:06:51;98922.42;;;5.60;100.00
11413;BME280;5762;43.256;26.960;2023-02-25T03:09:21;98922.62;;;5.66;100.00
11413;BME280;5762;43.256;26.960;2023-02-25T03:11:49;98923.73;;;5.63;100.00
11413;BME280;5762;43.256;26.960;2023-02-25T03:14:18;98925.83;;;5.45;100.00
11413;BME280;5762;43.256;26.960;2023-02-25T03:16:58;98923.50;;;5.35;100.00
11413;BME280;5762;43.256;26.960;2023-02-25T03:19:17;98916.30;;;5.31;100.00
11413;BME280;5762;43.256;26.960;2023-02-25T03:21:55;98914.23;;;5.23;100.00
11413;BME280;5762;43.256;26.960;2023-02-25T03:24:19;98916.84;;;5.30;100.00
11413;BME280;5762;43.256;26.960;2023-02-25T03:26:51;98918.75;;;5.27;100.00
11413;BME280;5762;43.256;26.960;2023-02-25T03:29:21;98925.50;;;5.22;100.00
11413;BME280;5762;43.256;26.960;2023-02-25T03:31:57;98925.55;;;5.20;100.00
11413;BME280;5762;43.256;26.960;2023-02-25T03:34:29;98922.20;;;5.30;100.00
11413;BME280;5762;43.256;26.960;2023-02-25T03:36:59;98922.09;;;5.43;100.00
11413;BME280;5762;43.256;26.960;2023-02-25T03:39:27;98927.05;;;5.55;100.00
11413;BME280;5762;43.256;26.960;2023-02-25T03:41:58;98927.50;;;5.62;100.00
11413;BME280;5762;43.256;26.960;2023-02-25T03:44:30;98919.09;;;5.71;100.00
11413;BME280;5762;43.256;26.960;2023-02-25T03:46:55;98919.31;;;5.75;100.00
11413;BME280;5762;43.256;26.960;2023-02-25T03:49:27;98918.31;;;5.68;100.00
11413;BME280;5762;43.256;26.960;2023-02-25T03:51:55;98910.45;;;5.53;100.00
11413;BME280;5762;43.256;26.960;2023-02-25T03:54:24;98912.41;;;5.45;100.00
11413;BME280;5762;43.256;26.960;2023-02-25T03:56:53;98904.41;;;5.39;100.00
11413;BME280;5762;43.256;26.960;2023-02-25T03:59:22;98900.93;;;5.39;100.00
11413;BME280;5762;43.256;26.960;2023-02-25T04:01:51;98898.25;;;5.39;100.00
11413;BME280;5762;43.256;26.960;2023-02-25T04:04:20;98894.30;;;5.31;100.00
11413;BME280;5762;43.256;26.960;2023-02-25T04:06:48;98893.00;;;5.26;100.00
11413;BME280;5762;43.256;26.960;2023-02-25T04:09:17;98889.78;;;5.27;100.00
11413;BME280;5762;43.256;26.960;2023-02-25T04:11:46;98895.69;;;5.26;100.00
11413;BME280;5762;43.256;26.960;2023-02-25T04:14:15;98891.97;;;5.22;100.00
11413;BME280;5762;43.256;26.960;2023-02-25T04:16:44;98892.72;;;5.28;100.00
11413;BME280;5762;43.256;26.960;2023-02-25T04:19:13;98898.55;;;5.35;100.00
11413;BME280;5762;43.256;26.960;2023-02-25T04:21:41;98890.02;;;5.30;100.00
11413;BME280;5762;43.256;26.960;2023-02-25T04:24:09;98884.65;;;5.30;100.00
11413;BME280;5762;43.256;26.960;2023-02-25T04:26:38;98882.80;;;5.28;100.00
11413;BME280;5762;43.256;26.960;2023-02-25T04:29:07;98883.05;;;5.29;100.00
11413;BME280;5762;43.256;26.960;2023-02-25T04:31:36;98886.02;;;5.28;100.00
11413;BME280;5762;43.256;26.960;2023-02-25T04:34:05;98893.39;;;5.17;100.00
11413;BME280;5762;43.256;26.960;2023-02-25T04:36:34;98899.31;;;5.14;100.00
11413;BME280;5762;43.256;26.960;2023-02-25T04:39:03;98907.66;;;5.10;100.00
11413;BME280;5762;43.256;26.960;2023-02-25T04:41:34;98899.30;;;5.17;100.00
11413;BME280;5762;43.256;26.960;2023-02-25T04:44:02;98884.84;;;5.13;100.00
11413;BME280;5762;43.256;26.960;2023-02-25T04:46:32;98873.84;;;5.14;100.00
11413;BME280;5762;43.256;26.960;2023-02-25T04:49:01;98878.25;;;5.26;100.00
11413;BME280;5762;43.256;26.960;2023-02-25T04:51:29;98880.27;;;5.39;100.00
11413;BME280;5762;43.256;26.960;2023-02-25T04:53:58;98878.41;;;5.37;100.00
11413;BME280;5762;43.256;26.960;2023-02-25T04:56:27;98878.13;;;5.39;100.00
11413;BME280;5762;43.256;26.960;2023-02-25T04:58:56;98882.28;;;5.53;100.00
11413;BME280;5762;43.256;26.960;2023-02-25T05:01:24;98877.70;;;5.53;100.00
11413;BME280;5762;43.256;26.960;2023-02-25T05:03:53;98874.66;;;5.60;100.00
11413;BME280;5762;43.256;26.960;2023-02-25T05:06:23;98868.45;;;5.62;100.00
11413;BME280;5762;43.256;26.960;2023-02-25T05:08:53;98864.72;;;5.60;100.00
11413;BME280;5762;43.256;26.960;2023-02-25T05:11:21;98872.74;;;5.63;100.00
11413;BME280;5762;43.256;26.960;2023-02-25T05:13:50;98882.02;;;5.52;100.00
11413;BME280;5762;43.256;26.960;2023-02-25T05:16:18;98876.91;;;5.53;100.00
11413;BME280;5762;43.256;26.960;2023-02-25T05:18:47;98878.68;;;5.60;100.00
11413;BME280;5762;43.256;26.960;2023-02-25T05:21:16;98877.08;;;5.59;100.00
11413;BME280;5762;43.256;26.960;2023-02-25T05:23:46;98867.91;;;5.62;100.00
11413;BME280;5762;43.256;26.960;2023-02-25T05:26:15;98870.97;;;5.77;100.00
11413;BME280;5762;43.256;26.960;2023-02-25T05:28:43;98868.73;;;5.84;100.00
11413;BME280;5762;43.256;26.960;2023-02-25T05:31:11;98870.08;;;5.84;100.00
11413;BME280;5762;43.256;26.960;2023-02-25T05:33:41;98870.80;;;5.68;100.00
11413;BME280;5762;43.256;26.960;2023-02-25T05:36:11;98869.74;;;5.67;100.00
11413;BME280;5762;43.256;26.960;2023-02-25T05:38:40;98876.08;;;5.76;100.00
11413;BME280;5762;43.256;26.960;2023-02-25T05:41:09;98873.84;;;5.83;100.00
11413;BME280;5762;43.256;26.960;2023-02-25T05:43:39;98873.59;;;5.82;100.00
11413;BME280;5762;43.256;26.960;2023-02-25T05:46:09;98874.73;;;5.76;100.00
11413;BME280;5762;43.256;26.960;2023-02-25T05:48:39;98875.48;;;5.82;100.00
11413;BME280;5762;43.256;26.960;2023-02-25T05:51:10;98874.36;;;5.85;100.00
11413;BME280;5762;43.256;26.960;2023-02-25T05:53:37;98870.36;;;5.83;100.00
11413;BME280;5762;43.256;26.960;2023-02-25T05:56:07;98867.91;;;5.89;100.00
11413;BME280;5762;43.256;26.960;2023-02-25T05:58:36;98869.28;;;6.05;100.00
11413;BME280;5762;43.256;26.960;2023-02-25T06:01:11;98864.97;;;6.07;100.00
11413;BME280;5762;43.256;26.960;2023-02-25T06:03:36;98861.98;;;6.08;100.00
11413;BME280;5762;43.256;26.960;2023-02-25T06:06:04;98872.34;;;6.17;100.00
11413;BME280;5762;43.256;26.960;2023-02-25T06:08:34;98868.66;;;6.29;100.00
11413;BME280;5762;43.256;26.960;2023-02-25T06:11:04;98863.28;;;6.29;100.00
11413;BME280;5762;43.256;26.960;2023-02-25T06:13:32;98868.44;;;6.45;100.00
11413;BME280;5762;43.256;26.960;2023-02-25T06:16:03;98859.28;;;6.46;100.00
11413;BME280;5762;43.256;26.960;2023-02-25T06:18:31;98864.66;;;6.46;100.00
11413;BME280;5762;43.256;26.960;2023-02-25T06:21:04;98863.24;;;6.51;100.00
11413;BME280;5762;43.256;26.960;2023-02-25T06:23:33;98855.91;;;6.56;100.00
11413;BME280;5762;43.256;26.960;2023-02-25T06:26:03;98859.96;;;6.70;100.00
11413;BME280;5762;43.256;26.960;2023-02-25T06:28:33;98870.30;;;6.79;100.00
11413;BME280;5762;43.256;26.960;2023-02-25T06:31:05;98870.94;;;6.90;100.00
11413;BME280;5762;43.256;26.960;2023-02-25T06:33:32;98868.89;;;6.98;100.00
11413;BME280;5762;43.256;26.960;2023-02-25T06:36:01;98867.42;;;7.05;100.00
11413;BME280;5762;43.256;26.960;2023-02-25T06:38:30;98868.00;;;7.19;100.00
11413;BME280;5762;43.256;26.960;2023-02-25T06:40:59;98865.34;;;7.30;100.00
11413;BME280;5762;43.256;26.960;2023-02-25T06:43:28;98862.48;;;7.26;100.00
11413;BME280;5762;43.256;26.960;2023-02-25T06:45:57;98861.69;;;7.26;100.00
11413;BME280;5762;43.256;26.960;2023-02-25T06:48:26;98863.43;;;7.47;100.00
11413;BME280;5762;43.256;26.960;2023-02-25T06:50:57;98862.64;;;7.60;100.00
11413;BME280;5762;43.256;26.960;2023-02-25T06:53:24;98866.80;;;7.66;100.00
11413;BME280;5762;43.256;26.960;2023-02-25T06:55:57;98864.50;;;7.73;100.00
11413;BME280;5762;43.256;26.960;2023-02-25T06:58:25;98862.66;;;7.85;100.00
11413;BME280;5762;43.256;26.960;2023-02-25T07:00:54;98852.48;;;8.06;100.00
11413;BME280;5762;43.256;26.960;2023-02-25T07:03:23;98855.98;;;8.43;100.00
11413;BME280;5762;43.256;26.960;2023-02-25T07:05:51;98846.73;;;8.69;100.00
11413;BME280;5762;43.256;26.960;2023-02-25T07:08:20;98843.16;;;8.93;100.00
11413;BME280;5762;43.256;26.960;2023-02-25T07:10:49;98836.48;;;9.11;100.00
11413;BME280;5762;43.256;26.960;2023-02-25T07:13:17;98826.72;;;9.23;100.00
11413;BME280;5762;43.256;26.960;2023-02-25T07:15:46;98818.09;;;9.32;100.00
11413;BME280;5762;43.256;26.960;2023-02-25T07:18:14;98815.20;;;9.49;100.00
11413;BME280;5762;43.256;26.960;2023-02-25T07:20:43;98818.83;;;9.64;100.00
11413;BME280;5762;43.256;26.960;2023-02-25T07:23:12;98814.95;;;9.85;100.00
11413;BME280;5762;43.256;26.960;2023-02-25T07:25:41;98803.05;;;10.12;100.00
11413;BME280;5762;43.256;26.960;2023-02-25T07:28:10;98806.67;;;10.27;100.00
11413;BME280;5762;43.256;26.960;2023-02-25T07:30:39;98796.45;;;10.41;100.00
11413;BME280;5762;43.256;26.960;2023-02-25T07:33:08;98792.62;;;10.59;100.00
11413;BME280;5762;43.256;26.960;2023-02-25T07:35:36;98791.03;;;10.67;100.00
11413;BME280;5762;43.256;26.960;2023-02-25T07:38:05;98783.64;;;10.85;100.00
11413;BME280;5762;43.256;26.960;2023-02-25T07:40:34;98782.57;;;11.00;100.00
11413;BME280;5762;43.256;26.960;2023-02-25T07:43:03;98780.27;;;11.11;100.00
11413;BME280;5762;43.256;26.960;2023-02-25T07:45:31;98776.02;;;11.39;100.00
11413;BME280;5762;43.256;26.960;2023-02-25T07:48:00;98780.39;;;11.53;100.00
11413;BME280;5762;43.256;26.960;2023-02-25T07:50:29;98781.70;;;11.76;100.00
11413;BME280;5762;43.256;26.960;2023-02-25T07:52:58;98765.85;;;11.87;100.00
11413;BME280;5762;43.256;26.960;2023-02-25T07:55:26;98760.53;;;12.05;100.00
11413;BME280;5762;43.256;26.960;2023-02-25T07:57:54;98756.47;;;12.32;100.00
11413;BME280;5762;43.256;26.960;2023-02-25T08:00:23;98759.56;;;12.49;100.00
11413;BME280;5762;43.256;26.960;2023-02-25T08:02:52;98744.59;;;12.69;100.00
11413;BME280;5762;43.256;26.960;2023-02-25T08:05:21;98743.70;;;12.90;100.00
11413;BME280;5762;43.256;26.960;2023-02-25T08:07:50;98739.20;;;13.06;100.00
11413;BME280;5762;43.256;26.960;2023-02-25T08:10:19;98734.92;;;13.23;100.00
11413;BME280;5762;43.256;26.960;2023-02-25T08:12:48;98736.96;;;13.45;100.00
11413;BME280;5762;43.256;26.960;2023-02-25T08:15:17;98728.23;;;13.51;100.00
11413;BME280;5762;43.256;26.960;2023-02-25T08:17:45;98727.63;;;13.64;100.00
11413;BME280;5762;43.256;26.960;2023-02-25T08:20:14;98715.33;;;13.88;100.00
11413;BME280;5762;43.256;26.960;2023-02-25T08:22:43;98716.08;;;14.01;100.00
11413;BME280;5762;43.256;26.960;2023-02-25T08:25:11;98716.31;;;14.24;100.00
11413;BME280;5762;43.256;26.960;2023-02-25T08:27:40;98699.59;;;14.44;100.00
11413;BME280;5762;43.256;26.960;2023-02-25T08:30:10;98700.92;;;14.65;100.00
11413;BME280;5762;43.256;26.960;2023-02-25T08:32:39;98689.48;;;14.82;100.00
11413;BME280;5762;43.256;26.960;2023-02-25T08:35:08;98685.23;;;15.00;100.00
11413;BME280;5762;43.256;26.960;2023-02-25T08:37:37;98685.67;;;15.02;100.00
11413;BME280;5762;43.256;26.960;2023-02-25T08:40:05;98682.37;;;15.18;100.00
11413;BME280;5762;43.256;26.960;2023-02-25T08:42:35;98689.13;;;15.24;100.00
11413;BME280;5762;43.256;26.960;2023-02-25T08:45:04;98682.97;;;15.37;100.00
11413;BME280;5762;43.256;26.960;2023-02-25T08:47:33;98683.44;;;15.49;100.00
11413;BME280;5762;43.256;26.960;2023-02-25T08:50:02;98680.81;;;15.62;100.00
11413;BME280;5762;43.256;26.960;2023-02-25T08:52:31;98672.07;;;15.72;100.00
11413;BME280;5762;43.256;26.960;2023-02-25T08:55:00;98666.33;;;15.77;100.00
11413;BME280;5762;43.256;26.960;2023-02-25T08:57:29;98674.45;;;15.83;100.00
11413;BME280;5762;43.256;26.960;2023-02-25T08:59:58;98674.16;;;15.79;100.00
11413;BME280;5762;43.256;26.960;2023-02-25T09:02:27;98665.41;;;15.79;100.00
11413;BME280;5762;43.256;26.960;2023-02-25T09:04:56;98667.13;;;15.78;100.00
11413;BME280;5762;43.256;26.960;2023-02-25T09:07:25;98662.59;;;15.75;100.00
11413;BME280;5762;43.256;26.960;2023-02-25T09:09:54;98656.34;;;15.94;100.00
11413;BME280;5762;43.256;26.960;2023-02-25T09:12:22;98649.51;;;16.14;100.00
11413;BME280;5762;43.256;26.960;2023-02-25T09:14:50;98649.35;;;16.26;100.00
11413;BME280;5762;43.256;26.960;2023-02-25T09:17:22;98643.45;;;16.56;100.00
11413;BME280;5762;43.256;26.960;2023-02-25T09:19:51;98638.26;;;16.84;100.00
11413;BME280;5762;43.256;26.960;2023-02-25T09:22:20;98639.31;;;16.89;100.00
11413;BME280;5762;43.256;26.960;2023-02-25T09:24:48;98638.57;;;17.05;100.00
11413;BME280;5762;43.256;26.960;2023-02-25T09:27:17;98637.27;;;17.22;100.00
11413;BME280;5762;43.256;26.960;2023-02-25T09:29:46;98632.70;;;17.29;100.00
11413;BME280;5762;43.256;26.960;2023-02-25T09:32:16;98633.61;;;17.40;100.00
11413;BME280;5762;43.256;26.960;2023-02-25T09:34:45;98630.38;;;17.61;100.00
11413;BME280;5762;43.256;26.960;2023-02-25T09:37:18;98622.84;;;17.68;100.00
11413;BME280;5762;43.256;26.960;2023-02-25T09:39:43;98614.89;;;17.72;100.00
11413;BME280;5762;43.256;26.960;2023-02-25T09:42:17;98614.14;;;17.75;100.00
11413;BME280;5762;43.256;26.960;2023-02-25T09:44:50;98606.23;;;17.84;100.00
11413;BME280;5762;43.256;26.960;2023-02-25T09:47:31;98600.92;;;17.98;100.00
11413;BME280;5762;43.256;26.960;2023-02-25T09:50:02;98593.41;;;18.12;100.00
11413;BME280;5762;43.256;26.960;2023-02-25T09:52:37;98593.98;;;18.28;100.00
11413;BME280;5762;43.256;26.960;2023-02-25T09:55:04;98587.44;;;18.43;100.00
11413;BME280;5762;43.256;26.960;2023-02-25T09:57:34;98581.06;;;18.52;100.00
11413;BME280;5762;43.256;26.960;2023-02-25T10:00:01;98575.70;;;18.63;100.00
11413;BME280;5762;43.256;26.960;2023-02-25T10:02:35;98576.34;;;18.49;100.00
11413;BME280;5762;43.256;26.960;2023-02-25T10:07:32;98563.02;;;18.71;100.00
11413;BME280;5762;43.256;26.960;2023-02-25T10:10:01;98569.00;;;18.84;100.00
11413;BME280;5762;43.256;26.960;2023-02-25T10:12:33;98566.53;;;18.96;100.00
11413;BME280;5762;43.256;26.960;2023-02-25T10:17:38;98553.43;;;18.71;100.00
11413;BME280;5762;43.256;26.960;2023-02-25T10:22:53;98530.11;;;18.95;96.67
11413;BME280;5762;43.256;26.960;2023-02-25T10:25:21;98538.05;;;18.84;95.84
11413;BME280;5762;43.256;26.960;2023-02-25T10:27:53;98525.10;;;18.53;94.44
11413;BME280;5762;43.256;26.960;2023-02-25T10:30:26;98515.19;;;18.34;96.96
11413;BME280;5762;43.256;26.960;2023-02-25T10:32:54;98517.98;;;18.18;96.69
11413;BME280;5762;43.256;26.960;2023-02-25T10:35:24;98519.17;;;18.20;100.00
11413;BME280;5762;43.256;26.960;2023-02-25T10:37:53;98510.20;;;18.23;98.55
11413;BME280;5762;43.256;26.960;2023-02-25T10:40:23;98506.98;;;18.34;100.00
11413;BME280;5762;43.256;26.960;2023-02-25T10:42:51;98512.34;;;18.48;96.15
11413;BME280;5762;43.256;26.960;2023-02-25T10:45:24;98497.70;;;18.81;93.60
11413;BME280;5762;43.256;26.960;2023-02-25T10:48:26;98496.42;;;18.95;90.73
11413;BME280;5762;43.256;26.960;2023-02-25T10:50:28;98491.53;;;18.98;86.23
11413;BME280;5762;43.256;26.960;2023-02-25T10:52:57;98478.44;;;19.01;83.02
11413;BME280;5762;43.256;26.960;2023-02-25T10:55:45;98473.97;;;19.17;83.46
11413;BME280;5762;43.256;26.960;2023-02-25T10:57:58;98474.42;;;19.29;80.60
11413;BME280;5762;43.256;26.960;2023-02-25T11:00:28;98472.55;;;19.55;76.83
11413;BME280;5762;43.256;26.960;2023-02-25T11:02:56;98470.23;;;19.64;70.64
11413;BME280;5762;43.256;26.960;2023-02-25T11:05:37;98454.35;;;19.67;69.80
11413;BME280;5762;43.256;26.960;2023-02-25T11:08:09;98453.37;;;19.80;66.43
11413;BME280;5762;43.256;26.960;2023-02-25T11:10:35;98452.20;;;19.84;63.27
11413;BME280;5762;43.256;26.960;2023-02-25T11:13:04;98445.53;;;19.82;61.27
11413;BME280;5762;43.256;26.960;2023-02-25T11:15:33;98447.51;;;19.95;59.65
11413;BME280;5762;43.256;26.960;2023-02-25T11:20:53;98442.58;;;20.16;61.87
11413;BME280;5762;43.256;26.960;2023-02-25T11:23:19;98434.94;;;20.19;60.24
11413;BME280;5762;43.256;26.960;2023-02-25T11:25:46;98415.91;;;20.38;58.52
11413;BME280;5762;43.256;26.960;2023-02-25T11:30:55;98423.89;;;20.65;58.01
11413;BME280;5762;43.256;26.960;2023-02-25T11:33:25;98421.30;;;20.77;60.60
11413;BME280;5762;43.256;26.960;2023-02-25T11:35:58;98427.32;;;20.91;57.72
11413;BME280;5762;43.256;26.960;2023-02-25T11:38:27;98418.94;;;20.79;49.50
11413;BME280;5762;43.256;26.960;2023-02-25T11:40:55;98415.84;;;20.59;52.13
11413;BME280;5762;43.256;26.960;2023-02-25T11:43:26;98410.55;;;20.60;52.49
11413;BME280;5762;43.256;26.960;2023-02-25T11:45:55;98415.22;;;20.78;50.37
11413;BME280;5762;43.256;26.960;2023-02-25T11:48:24;98418.30;;;20.87;50.47
11413;BME280;5762;43.256;26.960;2023-02-25T11:50:55;98401.20;;;20.87;49.32
11413;BME280;5762;43.256;26.960;2023-02-25T11:56:22;98384.06;;;21.02;49.89
11413;BME280;5762;43.256;26.960;2023-02-25T12:17:12;98375.56;;;21.12;50.62
11413;BME280;5762;43.256;26.960;2023-02-25T12:25:22;98373.34;;;20.82;44.78
11413;BME280;5762;43.256;26.960;2023-02-25T12:43:51;98384.06;;;20.48;46.67
11413;BME280;5762;43.256;26.960;2023-02-25T12:46:29;98382.38;;;20.06;47.66
11413;BME280;5762;43.256;26.960;2023-02-25T12:57:20;98369.80;;;19.34;52.98
11413;BME280;5762;43.256;26.960;2023-02-25T13:05:20;98372.47;;;19.06;56.67
11413;BME280;5762;43.256;26.960;2023-02-25T13:07:49;98349.95;;;18.99;58.04
11413;BME280;5762;43.256;26.960;2023-02-25T13:15:25;98371.47;;;18.94;64.04
11413;BME280;5762;43.256;26.960;2023-02-25T13:18:08;98365.41;;;18.94;64.46
11413;BME280;5762;43.256;26.960;2023-02-25T13:20:35;98363.45;;;18.98;65.63
11413;BME280;5762;43.256;26.960;2023-02-25T13:28:28;98363.03;;;18.89;70.65
11413;BME280;5762;43.256;26.960;2023-02-25T13:31:00;98376.52;;;18.85;73.32
11413;BME280;5762;43.256;26.960;2023-02-25T13:33:44;98383.55;;;18.79;74.34
11413;BME280;5762;43.256;26.960;2023-02-25T13:52:12;98388.97;;;18.61;85.01
11413;BME280;5762;43.256;26.960;2023-02-25T14:05:12;98374.48;;;18.60;86.93
11413;BME280;5762;43.256;26.960;2023-02-25T14:07:54;98370.19;;;18.63;87.36
11413;BME280;5762;43.256;26.960;2023-02-25T14:10:36;98368.05;;;18.66;86.98
11413;BME280;5762;43.256;26.960;2023-02-25T14:18:42;98351.82;;;18.70;86.04
11413;BME280;5762;43.256;26.960;2023-02-25T14:26:20;98351.22;;;18.67;87.28
11413;BME280;5762;43.256;26.960;2023-02-25T14:31:51;98343.77;;;18.64;85.14
11413;BME280;5762;43.256;26.960;2023-02-25T14:37:07;98338.89;;;18.67;86.64
11413;BME280;5762;43.256;26.960;2023-02-25T14:47:53;98345.64;;;18.53;89.37
11413;BME280;5762;43.256;26.960;2023-02-25T14:50:20;98343.65;;;18.47;91.60
11413;BME280;5762;43.256;26.960;2023-02-25T14:52:58;98342.83;;;18.39;95.12
11413;BME280;5762;43.256;26.960;2023-02-25T15:00:57;98340.45;;;18.30;100.00
11413;BME280;5762;43.256;26.960;2023-02-25T15:11:53;98339.56;;;18.12;100.00
11413;BME280;5762;43.256;26.960;2023-02-25T15:19:44;98340.34;;;18.13;100.00
11413;BME280;5762;43.256;26.960;2023-02-25T15:22:27;98339.58;;;18.16;100.00
11413;BME280;5762;43.256;26.960;2023-02-25T15:27:49;98335.83;;;18.11;100.00
11413;BME280;5762;43.256;26.960;2023-02-25T15:30:19;98349.30;;;18.06;100.00
11413;BME280;5762;43.256;26.960;2023-02-25T15:38:10;98350.62;;;17.95;100.00
11413;BME280;5762;43.256;26.960;2023-02-25T15:40:41;98357.84;;;17.94;100.00
11413;BME280;5762;43.256;26.960;2023-02-25T15:45:39;98352.13;;;17.89;100.00
11413;BME280;5762;43.256;26.960;2023-02-25T15:53:35;98363.34;;;17.73;100.00
11413;BME280;5762;43.256;26.960;2023-02-25T15:55:41;98366.19;;;17.64;100.00
11413;BME280;5762;43.256;26.960;2023-02-25T16:00:54;98375.12;;;17.57;100.00
11413;BME280;5762;43.256;26.960;2023-02-25T16:05:53;98370.23;;;17.57;100.00
11413;BME280;5762;43.256;26.960;2023-02-25T16:08:23;98377.68;;;17.60;100.00
11413;BME280;5762;43.256;26.960;2023-02-25T16:10:51;98387.80;;;17.56;100.00